Time;durP1;ratioP1;P1;durP2;ratioP2;P2;SDS_P1;SDS_P2;PMS_P1;PMS_P2;Temp;Humidity;BMP_temperature;BMP_pressure;BME280_temperature;BME280_humidity;BME280_pressure;Samples;Min_cycle;Max_cycle;Signal;HPM_P1;HPM_P2
2022/03/22 00:02:09;;;;;;;12.07;7.57;;;;;;;;;;4986062;28;20274;-51
2022/03/22 00:04:35;;;;;;;11.53;7.73;;;;;;;;;;4986095;28;20062;-51
2022/03/22 00:07:00;;;;;;;12.33;7.97;;;;;;;;;;4984363;28;20121;-51
2022/03/22 00:09:25;;;;;;;12.80;7.93;;;;;;;;;;4971613;28;20041;-51
2022/03/22 00:11:50;;;;;;;14.53;9.17;;;;;;;;;;4984720;28;20761;-51
2022/03/22 00:14:16;;;;;;;13.23;7.63;;;;;;;;;;4985870;28;20544;-52
2022/03/22 00:16:41;;;;;;;12.40;8.73;;;;;;;;;;4985479;28;20030;-51
2022/03/22 00:19:06;;;;;;;13.13;7.87;;;;;;;;;;4985589;28;20561;-51
2022/03/22 00:21:32;;;;;;;12.83;8.10;;;;;;;;;;4985584;28;20784;-51
2022/03/22 00:23:57;;;;;;;12.15;7.70;;;;;;;;;;4985790;28;20277;-51
2022/03/22 00:26:22;;;;;;;13.63;7.77;;;;;;;;;;4985685;28;20042;-51
2022/03/22 00:28:48;;;;;;;13.03;8.27;;;;;;;;;;4969728;28;21122;-51
2022/03/22 00:31:13;;;;;;;11.82;7.55;;;;;;;;;;4985181;28;20546;-52
2022/03/22 00:33:38;;;;;;;15.43;8.57;;;;;;;;;;4985705;28;20033;-52
2022/03/22 00:36:04;;;;;;;13.67;8.20;;;;;;;;;;4985391;28;20030;-51
2022/03/22 00:38:29;;;;;;;12.27;7.95;;;;;;;;;;4991891;28;20277;-52
2022/03/22 00:40:55;;;;;;;12.68;8.38;;;;;;;;;;4993945;28;20022;-51
2022/03/22 00:43:20;;;;;;;12.65;8.15;;;;;;;;;;4994523;28;20026;-51
2022/03/22 00:45:47;;;;;;;13.77;8.18;;;;;;;;;;4996423;28;20049;-52
2022/03/22 00:48:13;;;;;;;12.73;8.10;;;;;;;;;;4981218;28;20069;-51
2022/03/22 00:50:40;;;;;;;11.20;7.88;;;;;;;;;;4998571;28;20268;-51
2022/03/22 00:53:05;;;;;;;12.00;8.38;;;;;;;;;;5008789;28;20037;-52
2022/03/22 00:55:31;;;;;;;13.68;8.30;;;;;;;;;;5003613;28;20435;-51
2022/03/22 00:57:57;;;;;;;12.80;8.73;;;;;;;;;;4989821;28;20065;-52
2022/03/22 01:00:25;;;;;;;12.88;8.15;;;;;;;;;;4986308;28;20457;-51
2022/03/22 01:02:51;;;;;;;14.27;8.70;;;;;;;;;;4985215;28;20061;-51
2022/03/22 01:05:18;;;;;;;12.98;8.13;;;;;;;;;;4985113;28;20056;-51
2022/03/22 01:07:48;;;;;;;14.48;8.88;;;;;;;;;;4977252;28;20122;-53
2022/03/22 01:10:14;;;;;;;14.63;9.13;;;;;;;;;;4987214;28;20026;-51
2022/03/22 01:12:40;;;;;;;13.00;8.60;;;;;;;;;;4975127;28;20577;-51
2022/03/22 01:15:06;;;;;;;13.82;8.10;;;;;;;;;;4981928;28;20022;-50
2022/03/22 01:17:31;;;;;;;13.80;7.90;;;;;;;;;;4983259;28;20102;-51
2022/03/22 01:19:59;;;;;;;13.45;8.25;;;;;;;;;;4983693;28;20022;-51
2022/03/22 01:22:25;;;;;;;13.57;8.88;;;;;;;;;;4983206;28;20030;-51
2022/03/22 01:24:52;;;;;;;13.40;8.60;;;;;;;;;;4983482;28;20010;-51
2022/03/22 01:27:17;;;;;;;13.40;8.18;;;;;;;;;;4967818;28;20277;-51
2022/03/22 01:29:42;;;;;;;13.82;8.38;;;;;;;;;;4983981;28;20027;-49
2022/03/22 01:32:08;;;;;;;16.47;9.00;;;;;;;;;;4984083;28;20053;-52
2022/03/22 01:34:33;;;;;;;13.57;8.30;;;;;;;;;;4984104;28;20037;-51
2022/03/22 01:36:58;;;;;;;14.60;8.30;;;;;;;;;;4982489;28;20101;-51
2022/03/22 01:39:24;;;;;;;13.07;9.07;;;;;;;;;;4983823;28;20320;-51
2022/03/22 01:41:49;;;;;;;13.70;8.53;;;;;;;;;;4984005;28;20959;-51
2022/03/22 01:44:14;;;;;;;12.37;7.73;;;;;;;;;;4983840;28;20499;-51
2022/03/22 01:46:39;;;;;;;14.20;8.47;;;;;;;;;;4982390;28;20274;-51
2022/03/22 01:49:05;;;;;;;12.00;8.43;;;;;;;;;;4979623;28;20129;-52
2022/03/22 01:51:31;;;;;;;14.30;9.27;;;;;;;;;;4984226;28;20300;-51
2022/03/22 01:53:56;;;;;;;13.55;8.75;;;;;;;;;;4983558;28;20135;-51
2022/03/22 01:56:22;;;;;;;13.30;8.27;;;;;;;;;;4983827;28;20042;-51
2022/03/22 01:58:47;;;;;;;12.33;8.07;;;;;;;;;;4983884;28;20288;-51
2022/03/22 02:06:40;;;;;;;14.30;8.98;;;;;;;;;;4983201;28;20057;-51
2022/03/22 02:09:05;;;;;;;13.35;8.45;;;;;;;;;;4967849;28;20765;-51
2022/03/22 02:11:31;;;;;;;12.57;7.93;;;;;;;;;;5003056;28;20494;-52
2022/03/22 02:13:57;;;;;;;14.38;8.60;;;;;;;;;;5002999;28;20607;-52
2022/03/22 02:16:22;;;;;;;13.48;8.80;;;;;;;;;;4991048;28;20034;-52
2022/03/22 02:18:47;;;;;;;14.55;8.68;;;;;;;;;;4983471;28;20053;-51
2022/03/22 02:21:16;;;;;;;13.18;8.88;;;;;;;;;;5001247;28;20022;-52
2022/03/22 02:23:47;;;;;;;12.98;8.45;;;;;;;;;;5001640;28;20026;-50
2022/03/22 02:26:12;;;;;;;12.20;8.68;;;;;;;;;;5003101;28;20041;-50
2022/03/22 02:28:37;;;;;;;14.83;8.60;;;;;;;;;;4988875;28;20485;-51
2022/03/22 02:31:03;;;;;;;13.10;8.70;;;;;;;;;;4983101;28;20351;-51
2022/03/22 02:33:28;;;;;;;13.93;8.63;;;;;;;;;;4981975;28;20336;-52
2022/03/22 02:35:53;;;;;;;13.57;8.70;;;;;;;;;;4982748;28;20271;-51
2022/03/22 02:38:18;;;;;;;13.43;8.23;;;;;;;;;;4983102;28;20285;-51
2022/03/22 02:40:45;;;;;;;15.48;8.68;;;;;;;;;;4983639;28;20037;-51
2022/03/22 02:43:10;;;;;;;14.65;9.13;;;;;;;;;;4983264;28;20679;-53
2022/03/22 02:45:36;;;;;;;12.95;8.65;;;;;;;;;;4983276;28;20026;-51
2022/03/22 02:48:01;;;;;;;13.90;8.70;;;;;;;;;;4973954;28;20105;-52
2022/03/22 02:50:27;;;;;;;13.50;9.23;;;;;;;;;;4975912;28;20313;-51
2022/03/22 02:52:52;;;;;;;14.65;8.75;;;;;;;;;;4983041;28;20294;-51
2022/03/22 02:55:18;;;;;;;13.00;8.53;;;;;;;;;;4973885;28;20417;-51
2022/03/22 02:57:44;;;;;;;12.68;7.72;;;;;;;;;;4982860;28;20294;-51
2022/03/22 03:00:10;;;;;;;13.18;8.63;;;;;;;;;;4983005;28;20738;-53
2022/03/22 03:02:46;;;;;;;13.27;8.52;;;;;;;;;;4982898;28;20407;-51
2022/03/22 03:05:11;;;;;;;14.50;9.23;;;;;;;;;;4982886;28;20061;-50
2022/03/22 03:07:36;;;;;;;13.70;8.18;;;;;;;;;;4977509;28;20029;-50
2022/03/22 03:10:02;;;;;;;12.05;8.38;;;;;;;;;;4972810;28;20029;-51
2022/03/22 03:12:28;;;;;;;13.80;8.23;;;;;;;;;;4982584;28;20042;-51
2022/03/22 03:14:53;;;;;;;11.83;8.30;;;;;;;;;;4981503;28;20058;-50
2022/03/22 03:17:18;;;;;;;11.57;7.83;;;;;;;;;;4982383;28;20380;-51
2022/03/22 03:19:43;;;;;;;12.67;8.43;;;;;;;;;;4982825;28;20382;-51
2022/03/22 03:22:09;;;;;;;12.97;8.40;;;;;;;;;;4982898;28;20278;-51
2022/03/22 03:24:35;;;;;;;14.90;9.23;;;;;;;;;;4982690;28;21210;-51
2022/03/22 03:27:00;;;;;;;11.90;8.55;;;;;;;;;;4981421;28;20336;-51
2022/03/22 03:29:26;;;;;;;11.90;7.88;;;;;;;;;;4967578;28;20453;-51
2022/03/22 03:31:51;;;;;;;13.00;8.20;;;;;;;;;;4982981;28;20034;-51
2022/03/22 03:34:17;;;;;;;13.57;8.00;;;;;;;;;;4982739;28;20576;-50
2022/03/22 03:36:42;;;;;;;12.80;8.38;;;;;;;;;;4982694;28;20072;-50
2022/03/22 03:39:08;;;;;;;12.20;8.02;;;;;;;;;;4982573;28;20026;-50
2022/03/22 03:42:16;;;;;;;13.25;8.70;;;;;;;;;;4982849;28;20113;-51
2022/03/22 03:47:07;;;;;;;10.98;7.70;;;;;;;;;;4982536;28;20041;-51
2022/03/22 03:49:51;;;;;;;12.65;8.15;;;;;;;;;;4989486;28;20025;-51
2022/03/22 03:52:23;;;;;;;13.77;8.43;;;;;;;;;;5005601;28;20042;-52
2022/03/22 03:54:48;;;;;;;15.00;8.80;;;;;;;;;;5004322;28;20057;-51
2022/03/22 03:57:14;;;;;;;11.75;7.82;;;;;;;;;;4986866;28;20046;-50
2022/03/22 03:59:39;;;;;;;12.27;7.37;;;;;;;;;;4985896;28;20020;-51
2022/03/22 04:02:06;;;;;;;13.35;8.02;;;;;;;;;;4984727;28;20122;-51
2022/03/22 04:04:31;;;;;;;12.60;8.30;;;;;;;;;;4986051;28;20128;-50
2022/03/22 04:06:56;;;;;;;10.65;7.20;;;;;;;;;;4985448;28;20513;-50
2022/03/22 04:09:22;;;;;;;12.07;8.00;;;;;;;;;;4970129;28;20073;-51
2022/03/22 04:11:47;;;;;;;11.65;7.68;;;;;;;;;;4985596;28;20113;-51
2022/03/22 04:14:12;;;;;;;12.63;8.10;;;;;;;;;;4985580;28;20022;-50
2022/03/22 04:16:37;;;;;;;12.00;7.90;;;;;;;;;;4985460;28;20272;-50
2022/03/22 04:19:04;;;;;;;13.38;8.02;;;;;;;;;;4986302;28;20037;-50
2022/03/22 04:21:29;;;;;;;11.90;7.32;;;;;;;;;;5005369;28;20044;-50
2022/03/22 04:23:55;;;;;;;12.18;7.55;;;;;;;;;;5005227;28;20116;-50
2022/03/22 04:26:20;;;;;;;10.52;7.25;;;;;;;;;;4994285;28;20109;-50
2022/03/22 04:34:13;;;;;;;11.50;7.20;;;;;;;;;;4985513;28;20080;-50
2022/03/22 04:36:38;;;;;;;12.30;7.32;;;;;;;;;;4983891;28;20057;-50
2022/03/22 04:39:03;;;;;;;10.82;7.47;;;;;;;;;;4985164;28;20034;-48
2022/03/22 04:41:29;;;;;;;11.07;7.50;;;;;;;;;;4985363;28;20517;-51
2022/03/22 04:43:54;;;;;;;9.57;6.70;;;;;;;;;;4985014;28;20987;-51
2022/03/22 04:46:19;;;;;;;11.50;7.07;;;;;;;;;;4974552;28;21173;-52
2022/03/22 04:48:45;;;;;;;11.40;7.23;;;;;;;;;;4965737;28;20014;-51
2022/03/22 04:56:46;;;;;;;10.85;7.03;;;;;;;;;;4974809;28;20026;-51
2022/03/22 04:59:11;;;;;;;9.93;6.35;;;;;;;;;;4983672;28;20026;-50
2022/03/22 05:01:37;;;;;;;11.48;7.10;;;;;;;;;;4984212;28;20032;-50
2022/03/22 05:04:02;;;;;;;10.15;6.60;;;;;;;;;;4983862;28;20019;-51
2022/03/22 05:06:27;;;;;;;9.38;6.18;;;;;;;;;;4976419;28;20663;-51
2022/03/22 05:08:56;;;;;;;11.07;6.68;;;;;;;;;;4983675;28;20014;-51
2022/03/22 05:11:21;;;;;;;10.90;6.53;;;;;;;;;;4983575;28;20121;-52
2022/03/22 05:13:47;;;;;;;11.00;7.20;;;;;;;;;;4982536;28;20061;-51
2022/03/22 05:16:12;;;;;;;9.77;7.30;;;;;;;;;;4983597;28;20405;-51
2022/03/22 05:18:37;;;;;;;10.73;7.03;;;;;;;;;;4983666;28;20281;-51
2022/03/22 05:21:06;;;;;;;9.93;6.37;;;;;;;;;;4983736;28;20270;-50
2022/03/22 05:23:32;;;;;;;9.05;6.35;;;;;;;;;;4978828;28;20265;-51
2022/03/22 05:25:57;;;;;;;9.60;6.38;;;;;;;;;;4972739;28;20014;-50
2022/03/22 05:28:22;;;;;;;8.37;6.33;;;;;;;;;;4972804;28;20534;-51
2022/03/22 05:30:48;;;;;;;8.87;6.53;;;;;;;;;;4979469;28;20449;-50
2022/03/22 05:33:13;;;;;;;9.60;6.73;;;;;;;;;;4968201;28;20466;-51
2022/03/22 05:35:39;;;;;;;11.87;7.10;;;;;;;;;;4983833;28;20745;-51
2022/03/22 05:38:04;;;;;;;10.10;6.45;;;;;;;;;;4983897;28;20261;-52
2022/03/22 05:40:29;;;;;;;10.57;6.87;;;;;;;;;;4983911;28;20482;-51
2022/03/22 05:42:55;;;;;;;9.45;6.40;;;;;;;;;;4983624;28;20279;-50
2022/03/22 05:45:20;;;;;;;8.98;6.38;;;;;;;;;;4982130;28;20030;-51
2022/03/22 05:47:45;;;;;;;9.63;5.95;;;;;;;;;;4969352;28;20022;-51
2022/03/22 05:50:10;;;;;;;9.85;6.10;;;;;;;;;;4970753;28;20534;-51
2022/03/22 05:52:40;;;;;;;10.15;6.70;;;;;;;;;;4974444;28;20038;-50
2022/03/22 05:55:06;;;;;;;11.02;6.78;;;;;;;;;;4982642;28;20050;-50
2022/03/22 05:57:31;;;;;;;9.00;6.30;;;;;;;;;;4981810;28;20034;-50
2022/03/22 05:59:56;;;;;;;9.57;6.27;;;;;;;;;;4983438;28;20050;-51
2022/03/22 06:02:22;;;;;;;11.10;6.40;;;;;;;;;;4981853;28;20061;-51
2022/03/22 06:04:48;;;;;;;10.57;5.87;;;;;;;;;;4974837;28;20272;-51
2022/03/22 06:07:13;;;;;;;11.00;6.63;;;;;;;;;;4982546;28;20492;-52
2022/03/22 06:09:38;;;;;;;9.00;6.90;;;;;;;;;;4982509;28;20105;-51
2022/03/22 06:12:06;;;;;;;10.70;6.63;;;;;;;;;;4982121;28;20038;-51
2022/03/22 06:14:31;;;;;;;9.93;6.30;;;;;;;;;;4982701;28;20119;-50
2022/03/22 06:16:56;;;;;;;9.07;6.35;;;;;;;;;;4982786;28;20482;-51
2022/03/22 06:19:22;;;;;;;9.80;5.93;;;;;;;;;;4982354;28;20030;-51
2022/03/22 06:21:47;;;;;;;9.60;6.38;;;;;;;;;;4982954;28;20033;-51
2022/03/22 06:24:12;;;;;;;8.35;6.28;;;;;;;;;;4982204;28;20037;-52
2022/03/22 06:26:38;;;;;;;9.38;6.45;;;;;;;;;;4983369;28;20026;-51
2022/03/22 06:29:03;;;;;;;10.47;6.87;;;;;;;;;;4967648;28;20503;-52
2022/03/22 06:31:33;;;;;;;9.20;6.53;;;;;;;;;;5003051;28;21732;-52
2022/03/22 06:34:00;;;;;;;8.68;6.25;;;;;;;;;;5002713;28;20405;-53
2022/03/22 06:36:26;;;;;;;9.13;6.20;;;;;;;;;;4990863;28;20026;-53
2022/03/22 06:38:51;;;;;;;10.60;6.17;;;;;;;;;;4983422;28;20136;-53
2022/03/22 06:41:16;;;;;;;11.63;6.80;;;;;;;;;;4983038;28;20387;-52
2022/03/22 06:43:41;;;;;;;10.73;6.47;;;;;;;;;;4982903;28;20273;-52
2022/03/22 06:46:07;;;;;;;9.97;6.87;;;;;;;;;;4983279;28;20032;-53
2022/03/22 06:48:32;;;;;;;10.15;6.38;;;;;;;;;;4975330;28;20286;-52
2022/03/22 06:50:57;;;;;;;10.00;6.47;;;;;;;;;;4977962;28;20034;-52
2022/03/22 06:53:22;;;;;;;8.57;5.80;;;;;;;;;;4980064;28;20037;-52
2022/03/22 06:55:47;;;;;;;9.13;6.50;;;;;;;;;;4984536;28;20362;-52
2022/03/22 06:58:14;;;;;;;9.95;5.97;;;;;;;;;;4991152;28;20274;-52
2022/03/22 07:00:40;;;;;;;9.68;6.40;;;;;;;;;;4990845;28;20105;-53
2022/03/22 07:03:05;;;;;;;8.40;5.90;;;;;;;;;;4990236;28;20054;-52
2022/03/22 07:05:30;;;;;;;9.48;6.05;;;;;;;;;;4985715;28;20048;-51
2022/03/22 07:07:56;;;;;;;7.85;5.78;;;;;;;;;;4974186;28;20481;-51
2022/03/22 07:10:21;;;;;;;9.30;5.65;;;;;;;;;;4976506;28;20789;-51
2022/03/22 07:12:51;;;;;;;8.70;6.03;;;;;;;;;;4983434;28;20170;-50
2022/03/22 07:15:17;;;;;;;8.30;5.65;;;;;;;;;;4982074;28;20081;-51
2022/03/22 07:17:42;;;;;;;8.35;5.15;;;;;;;;;;4981991;28;20034;-50
2022/03/22 07:20:07;;;;;;;8.50;5.68;;;;;;;;;;4982260;28;20014;-50
2022/03/22 07:22:33;;;;;;;9.85;5.97;;;;;;;;;;4998124;28;20489;-51
2022/03/22 07:24:58;;;;;;;7.47;5.33;;;;;;;;;;5004922;28;20061;-51
2022/03/22 07:27:23;;;;;;;9.02;5.43;;;;;;;;;;4998148;28;20272;-50
2022/03/22 07:29:50;;;;;;;9.20;5.70;;;;;;;;;;4985293;28;20030;-51
2022/03/22 07:32:16;;;;;;;8.85;5.47;;;;;;;;;;4985182;28;20057;-50
2022/03/22 07:34:41;;;;;;;8.40;5.75;;;;;;;;;;4984193;28;20041;-51
2022/03/22 07:37:07;;;;;;;11.03;6.43;;;;;;;;;;4979903;28;20030;-50
2022/03/22 07:39:34;;;;;;;9.13;5.55;;;;;;;;;;4977820;28;20316;-52
2022/03/22 07:42:00;;;;;;;8.77;5.30;;;;;;;;;;4979633;28;20105;-51
2022/03/22 07:44:27;;;;;;;7.93;5.23;;;;;;;;;;4984605;28;20562;-51
2022/03/22 07:46:52;;;;;;;8.32;5.50;;;;;;;;;;4978993;28;20253;-51
2022/03/22 07:54:46;;;;;;;8.02;5.10;;;;;;;;;;4985449;28;20196;-53
2022/03/22 07:57:11;;;;;;;8.25;5.50;;;;;;;;;;4985096;28;20553;-51
2022/03/22 07:59:37;;;;;;;8.68;5.30;;;;;;;;;;4985270;28;20015;-51
2022/03/22 08:02:02;;;;;;;7.00;4.85;;;;;;;;;;4985411;28;20026;-51
2022/03/22 08:04:28;;;;;;;7.60;5.15;;;;;;;;;;4985391;28;20018;-51
2022/03/22 08:06:53;;;;;;;7.60;5.30;;;;;;;;;;4985547;28;20030;-51
2022/03/22 08:09:19;;;;;;;8.00;5.00;;;;;;;;;;4971595;28;20039;-52
2022/03/22 08:11:44;;;;;;;7.78;5.45;;;;;;;;;;4965088;28;20329;-51
2022/03/22 08:14:09;;;;;;;8.83;5.20;;;;;;;;;;4965316;28;20603;-51
2022/03/22 08:16:36;;;;;;;7.33;5.17;;;;;;;;;;4965680;28;20893;-51
2022/03/22 08:19:04;;;;;;;7.95;5.10;;;;;;;;;;4965157;28;20634;-50
2022/03/22 08:21:29;;;;;;;7.57;4.63;;;;;;;;;;4969744;28;20023;-51
2022/03/22 08:23:55;;;;;;;7.47;4.95;;;;;;;;;;4985394;28;20026;-51
2022/03/22 08:26:20;;;;;;;7.65;5.05;;;;;;;;;;4985138;28;20059;-51
2022/03/22 08:28:46;;;;;;;6.47;4.13;;;;;;;;;;4971527;28;20030;-51
2022/03/22 08:31:11;;;;;;;7.20;4.88;;;;;;;;;;4982931;28;20437;-53
2022/03/22 08:33:36;;;;;;;7.47;4.70;;;;;;;;;;4984373;28;20060;-50
2022/03/22 08:36:02;;;;;;;7.05;5.18;;;;;;;;;;4983614;28;20448;-50
2022/03/22 08:38:27;;;;;;;7.07;4.60;;;;;;;;;;4985227;28;20512;-50
2022/03/22 08:40:52;;;;;;;6.83;4.50;;;;;;;;;;4984144;28;20022;-52
2022/03/22 08:43:19;;;;;;;7.60;4.40;;;;;;;;;;4999342;28;20269;-52
2022/03/22 08:45:44;;;;;;;7.45;4.70;;;;;;;;;;5003047;28;20544;-51
2022/03/22 08:48:11;;;;;;;7.20;4.90;;;;;;;;;;4995383;28;20041;-50
2022/03/22 08:50:36;;;;;;;7.53;4.72;;;;;;;;;;4997585;28;20026;-51
2022/03/22 08:53:02;;;;;;;7.32;4.78;;;;;;;;;;5002792;28;20037;-51
2022/03/22 08:55:28;;;;;;;6.88;4.50;;;;;;;;;;4999355;28;20506;-51
2022/03/22 08:57:54;;;;;;;6.32;4.72;;;;;;;;;;4984279;28;20026;-51
2022/03/22 09:00:20;;;;;;;6.45;4.45;;;;;;;;;;4984250;28;20061;-51
2022/03/22 09:02:46;;;;;;;6.28;4.32;;;;;;;;;;4984611;28;20050;-50
2022/03/22 09:07:58;;;;;;;7.22;4.50;;;;;;;;;;4978525;28;20029;-50
2022/03/22 09:10:23;;;;;;;6.47;4.32;;;;;;;;;;4984392;28;20026;-50
2022/03/22 09:12:49;;;;;;;7.57;4.20;;;;;;;;;;4984509;28;20100;-51
2022/03/22 09:15:18;;;;;;;7.22;4.70;;;;;;;;;;4984151;28;20027;-50
2022/03/22 09:17:43;;;;;;;5.97;4.10;;;;;;;;;;4984628;28;20132;-50
2022/03/22 09:20:12;;;;;;;6.88;4.50;;;;;;;;;;4984561;28;20458;-51
2022/03/22 09:22:37;;;;;;;5.72;4.13;;;;;;;;;;4984587;28;20553;-50
2022/03/22 09:25:03;;;;;;;6.90;4.25;;;;;;;;;;4992982;28;20128;-51
2022/03/22 09:27:28;;;;;;;6.88;4.38;;;;;;;;;;4999042;28;20133;-51
2022/03/22 09:29:53;;;;;;;7.47;4.20;;;;;;;;;;4984303;28;20022;-51
2022/03/22 09:32:19;;;;;;;6.20;3.87;;;;;;;;;;4984151;28;20332;-51
2022/03/22 09:34:44;;;;;;;5.85;4.13;;;;;;;;;;4982512;28;20061;-51
2022/03/22 09:37:09;;;;;;;5.68;3.92;;;;;;;;;;4983935;28;20033;-50
2022/03/22 09:39:35;;;;;;;6.25;4.20;;;;;;;;;;4984154;28;20026;-51
2022/03/22 09:42:03;;;;;;;6.88;4.05;;;;;;;;;;4984696;28;20065;-51
2022/03/22 09:44:29;;;;;;;5.90;3.90;;;;;;;;;;4982336;28;20034;-51
2022/03/22 09:46:55;;;;;;;5.30;3.53;;;;;;;;;;4980816;28;20029;-51
2022/03/22 09:49:20;;;;;;;4.95;3.60;;;;;;;;;;4983200;28;20038;-51
2022/03/22 09:51:45;;;;;;;6.28;4.00;;;;;;;;;;4984002;28;20097;-51
2022/03/22 09:54:22;;;;;;;6.15;3.78;;;;;;;;;;4983693;28;20057;-51
2022/03/22 09:56:47;;;;;;;6.32;3.78;;;;;;;;;;4983459;28;20015;-51
2022/03/22 09:59:14;;;;;;;5.90;3.80;;;;;;;;;;4980871;28;20026;-51
2022/03/22 10:01:40;;;;;;;5.63;3.83;;;;;;;;;;4969783;28;20030;-51
2022/03/22 10:04:08;;;;;;;7.47;4.85;;;;;;;;;;4983659;28;20465;-51
2022/03/22 10:06:33;;;;;;;5.32;3.75;;;;;;;;;;4978100;28;20034;-51
2022/03/22 10:08:59;;;;;;;5.30;3.70;;;;;;;;;;4987974;28;20030;-50
2022/03/22 10:11:34;;;;;;;5.75;4.25;;;;;;;;;;4983324;28;20469;-50
2022/03/22 10:14:00;;;;;;;5.40;4.25;;;;;;;;;;4983097;28;20041;-51
2022/03/22 10:16:25;;;;;;;6.20;4.35;;;;;;;;;;4981794;28;20057;-50
2022/03/22 10:18:51;;;;;;;5.35;3.65;;;;;;;;;;4983071;28;20157;-50
2022/03/22 10:21:16;;;;;;;6.63;3.90;;;;;;;;;;4982793;28;20046;-51
2022/03/22 10:23:48;;;;;;;5.53;3.67;;;;;;;;;;4982050;28;20032;-51
2022/03/22 10:26:13;;;;;;;7.90;4.63;;;;;;;;;;4983367;28;20328;-51
2022/03/22 10:28:47;;;;;;;6.53;4.00;;;;;;;;;;4970988;28;20030;-51
2022/03/22 10:31:12;;;;;;;6.07;3.78;;;;;;;;;;4980843;28;20269;-50
2022/03/22 10:33:47;;;;;;;6.47;3.60;;;;;;;;;;4982698;28;20498;-52
2022/03/22 10:36:14;;;;;;;6.07;3.83;;;;;;;;;;4981879;28;20335;-51
2022/03/22 10:38:39;;;;;;;6.13;3.70;;;;;;;;;;4982537;28;20022;-51
2022/03/22 10:41:04;;;;;;;7.35;4.20;;;;;;;;;;4981527;28;20025;-52
2022/03/22 10:43:32;;;;;;;6.67;3.97;;;;;;;;;;4983277;28;20282;-51
2022/03/22 10:46:00;;;;;;;6.80;4.45;;;;;;;;;;4983334;28;20903;-51
2022/03/22 10:48:26;;;;;;;7.38;3.88;;;;;;;;;;4981797;28;20107;-50
2022/03/22 10:50:52;;;;;;;6.90;3.92;;;;;;;;;;4985710;28;20026;-51
2022/03/22 10:53:18;;;;;;;5.85;3.78;;;;;;;;;;4982781;28;20034;-50
2022/03/22 10:55:44;;;;;;;6.88;4.00;;;;;;;;;;4983696;28;20039;-51
2022/03/22 10:58:09;;;;;;;6.25;4.05;;;;;;;;;;4986486;28;20027;-51
2022/03/22 11:00:36;;;;;;;6.00;3.87;;;;;;;;;;4985868;28;20058;-50
2022/03/22 11:03:01;;;;;;;7.43;4.07;;;;;;;;;;4985263;28;20364;-51
2022/03/22 11:05:27;;;;;;;6.83;3.77;;;;;;;;;;4985654;28;20621;-51
2022/03/22 11:07:52;;;;;;;5.25;3.88;;;;;;;;;;4980665;28;20569;-52
2022/03/22 11:10:25;;;;;;;7.07;4.25;;;;;;;;;;4977449;28;20026;-52
2022/03/22 11:12:50;;;;;;;6.05;3.92;;;;;;;;;;4986827;28;20042;-51
2022/03/22 11:15:16;;;;;;;6.53;4.00;;;;;;;;;;4986741;28;20027;-51
2022/03/22 11:17:41;;;;;;;6.63;4.32;;;;;;;;;;4985604;28;20010;-52
2022/03/22 11:20:07;;;;;;;6.30;3.85;;;;;;;;;;4985500;28;20098;-52
2022/03/22 11:22:33;;;;;;;6.13;4.05;;;;;;;;;;4986810;28;20498;-51
2022/03/22 11:25:10;;;;;;;6.63;4.43;;;;;;;;;;4986489;28;20038;-50
2022/03/22 11:27:36;;;;;;;6.20;4.05;;;;;;;;;;4982982;28;20072;-52
2022/03/22 11:30:03;;;;;;;7.13;4.20;;;;;;;;;;4981947;28;20022;-50
2022/03/22 11:35:12;;;;;;;5.85;3.80;;;;;;;;;;4993996;28;20410;-51
2022/03/22 11:37:37;;;;;;;5.85;3.97;;;;;;;;;;4986766;28;20478;-51
2022/03/22 11:42:53;;;;;;;7.28;4.22;;;;;;;;;;4986179;28;20346;-51
2022/03/22 11:45:19;;;;;;;7.03;4.30;;;;;;;;;;4985759;28;20478;-50
2022/03/22 11:47:45;;;;;;;7.03;3.90;;;;;;;;;;4983318;28;20114;-51
2022/03/22 11:50:13;;;;;;;6.30;3.88;;;;;;;;;;4994602;28;20559;-51
2022/03/22 11:52:39;;;;;;;5.45;3.88;;;;;;;;;;5005804;28;20025;-51
2022/03/22 11:55:21;;;;;;;5.95;3.88;;;;;;;;;;5002111;28;20864;-51
2022/03/22 11:57:48;;;;;;;6.53;3.90;;;;;;;;;;4971918;28;20473;-52
2022/03/22 12:00:14;;;;;;;5.43;3.83;;;;;;;;;;4985898;28;20091;-50
2022/03/22 12:02:41;;;;;;;6.22;4.25;;;;;;;;;;4984824;28;20521;-50
2022/03/22 12:05:07;;;;;;;6.35;4.10;;;;;;;;;;4986693;28;20018;-51
2022/03/22 12:07:34;;;;;;;6.68;4.03;;;;;;;;;;4982312;28;20029;-50
2022/03/22 12:10:03;;;;;;;5.53;3.67;;;;;;;;;;4979945;28;20083;-50
2022/03/22 12:12:28;;;;;;;6.35;4.03;;;;;;;;;;5005342;28;20042;-51
2022/03/22 12:14:54;;;;;;;7.50;4.23;;;;;;;;;;5003949;28;20038;-50
2022/03/22 12:17:19;;;;;;;7.13;4.10;;;;;;;;;;4987277;28;20309;-51
2022/03/22 12:19:44;;;;;;;6.00;4.00;;;;;;;;;;4985913;28;20018;-50
2022/03/22 12:22:10;;;;;;;6.63;4.47;;;;;;;;;;4985860;28;20038;-51
2022/03/22 12:24:35;;;;;;;5.60;3.53;;;;;;;;;;4985924;28;20041;-50
2022/03/22 12:27:01;;;;;;;6.82;4.10;;;;;;;;;;4985503;28;20346;-51
2022/03/22 12:29:27;;;;;;;5.50;3.42;;;;;;;;;;4971696;28;20039;-50
2022/03/22 12:31:52;;;;;;;6.32;3.45;;;;;;;;;;4989819;28;20064;-50
2022/03/22 12:34:18;;;;;;;6.28;4.07;;;;;;;;;;4984877;28;20030;-51
2022/03/22 12:36:44;;;;;;;6.00;3.90;;;;;;;;;;4985099;28;20029;-51
2022/03/22 12:39:09;;;;;;;6.53;3.92;;;;;;;;;;4982519;28;20034;-52
2022/03/22 12:41:34;;;;;;;6.47;3.55;;;;;;;;;;4984534;28;20449;-50
2022/03/22 12:44:00;;;;;;;5.73;3.40;;;;;;;;;;4985416;28;20010;-50
2022/03/22 12:46:28;;;;;;;5.55;3.78;;;;;;;;;;4985029;28;20529;-52
2022/03/22 12:48:54;;;;;;;8.95;3.70;;;;;;;;;;4971702;28;20019;-52
2022/03/22 12:51:19;;;;;;;5.63;3.60;;;;;;;;;;4981912;28;20040;-51
2022/03/22 12:53:45;;;;;;;4.82;3.53;;;;;;;;;;4985226;28;20050;-51
2022/03/22 12:56:16;;;;;;;5.57;3.80;;;;;;;;;;4984201;28;20030;-53
2022/03/22 12:58:42;;;;;;;7.03;4.05;;;;;;;;;;4984434;28;20297;-51
2022/03/22 13:01:07;;;;;;;5.97;3.90;;;;;;;;;;4992975;28;20022;-52
2022/03/22 13:03:32;;;;;;;9.10;5.23;;;;;;;;;;4993825;28;20955;-52
2022/03/22 13:05:58;;;;;;;5.03;3.47;;;;;;;;;;4993894;28;20273;-52
2022/03/22 13:08:27;;;;;;;6.22;3.50;;;;;;;;;;4991483;28;20765;-51
2022/03/22 13:16:28;;;;;;;6.00;3.53;;;;;;;;;;4987497;28;20041;-52
2022/03/22 13:18:57;;;;;;;5.43;3.58;;;;;;;;;;4983628;28;20027;-51
2022/03/22 13:21:35;;;;;;;6.00;3.72;;;;;;;;;;4983336;28;20061;-51
2022/03/22 13:24:01;;;;;;;5.28;3.40;;;;;;;;;;4983341;28;20113;-51
2022/03/22 13:26:27;;;;;;;6.18;3.97;;;;;;;;;;4983708;28;20110;-52
2022/03/22 13:28:52;;;;;;;7.00;3.65;;;;;;;;;;4969250;28;20660;-50
2022/03/22 13:31:21;;;;;;;5.80;3.37;;;;;;;;;;4979936;28;20033;-51
2022/03/22 13:33:51;;;;;;;6.20;4.00;;;;;;;;;;4983278;28;20357;-50
2022/03/22 13:36:18;;;;;;;5.57;3.40;;;;;;;;;;4981478;28;20030;-51
2022/03/22 13:38:47;;;;;;;5.63;3.83;;;;;;;;;;4983497;28;20038;-50
2022/03/22 13:41:12;;;;;;;8.85;3.90;;;;;;;;;;4982555;28;20113;-50
2022/03/22 13:43:44;;;;;;;5.57;3.73;;;;;;;;;;4981946;28;20117;-50
2022/03/22 13:46:10;;;;;;;6.10;3.63;;;;;;;;;;4982606;28;20104;-51
2022/03/22 13:48:42;;;;;;;8.52;3.88;;;;;;;;;;4982931;28;20030;-50
2022/03/22 13:51:07;;;;;;;6.50;4.28;;;;;;;;;;4983964;28;20018;-49
2022/03/22 13:53:33;;;;;;;6.33;4.17;;;;;;;;;;4981960;28;20034;-50
2022/03/22 13:55:58;;;;;;;8.10;4.13;;;;;;;;;;4983437;28;20085;-50
2022/03/22 13:58:24;;;;;;;7.00;3.97;;;;;;;;;;4983943;28;20037;-50
2022/03/22 14:00:50;;;;;;;6.53;4.15;;;;;;;;;;4983922;28;20100;-50
2022/03/22 14:03:15;;;;;;;7.00;4.80;;;;;;;;;;4982975;28;20121;-51
2022/03/22 14:05:41;;;;;;;8.73;5.35;;;;;;;;;;4982340;28;20116;-51
2022/03/22 14:08:07;;;;;;;9.68;5.63;;;;;;;;;;4976351;28;20026;-50
2022/03/22 14:10:32;;;;;;;7.80;5.00;;;;;;;;;;4986013;28;20022;-50
2022/03/22 14:12:58;;;;;;;8.80;5.30;;;;;;;;;;5003259;28;20050;-50
2022/03/22 14:15:23;;;;;;;8.85;5.38;;;;;;;;;;5000621;28;20476;-50
2022/03/22 14:17:51;;;;;;;8.35;5.18;;;;;;;;;;4983645;28;20121;-50
2022/03/22 14:20:17;;;;;;;8.57;5.68;;;;;;;;;;4983180;28;20054;-50
2022/03/22 14:22:43;;;;;;;9.15;5.45;;;;;;;;;;4983599;28;20460;-50
2022/03/22 14:25:08;;;;;;;10.48;6.40;;;;;;;;;;4983636;28;20022;-51
2022/03/22 14:27:34;;;;;;;10.13;6.20;;;;;;;;;;4980384;28;20455;-51
2022/03/22 14:30:03;;;;;;;9.38;6.35;;;;;;;;;;4977821;28;20053;-52
2022/03/22 14:32:29;;;;;;;10.25;6.25;;;;;;;;;;4983594;28;20065;-51
2022/03/22 14:37:38;;;;;;;11.55;7.50;;;;;;;;;;4967810;28;20701;-51
2022/03/22 14:40:03;;;;;;;9.53;6.27;;;;;;;;;;4982885;28;20057;-50
2022/03/22 14:42:29;;;;;;;11.15;6.43;;;;;;;;;;4983631;28;20772;-50
2022/03/22 14:44:54;;;;;;;10.02;6.38;;;;;;;;;;4983452;28;20124;-50
2022/03/22 14:47:20;;;;;;;11.23;6.43;;;;;;;;;;4980488;28;20042;-50
2022/03/22 14:49:45;;;;;;;9.73;5.95;;;;;;;;;;4983208;28;20034;-50
2022/03/22 14:54:54;;;;;;;10.48;6.60;;;;;;;;;;4983139;28;20777;-52
2022/03/22 15:00:04;;;;;;;11.95;6.97;;;;;;;;;;4983319;28;20917;-50
2022/03/22 15:02:29;;;;;;;9.55;5.75;;;;;;;;;;4983018;28;20057;-51
2022/03/22 15:04:56;;;;;;;9.18;6.22;;;;;;;;;;4983214;28;20029;-51
2022/03/22 15:07:22;;;;;;;10.75;6.32;;;;;;;;;;4981833;28;20023;-50
2022/03/22 15:09:50;;;;;;;9.90;6.65;;;;;;;;;;4973038;28;20014;-49
2022/03/22 15:12:16;;;;;;;10.60;5.72;;;;;;;;;;4995937;28;20296;-50
2022/03/22 15:14:42;;;;;;;10.10;6.88;;;;;;;;;;4983093;28;20018;-51
2022/03/22 15:17:07;;;;;;;11.52;6.78;;;;;;;;;;4982766;28;20349;-51
2022/03/22 15:19:32;;;;;;;11.55;6.38;;;;;;;;;;4982953;28;20513;-50